< < Back
Terminal Aerodrome Forecast


Current Version              Previous Versions:   1  2  3  4  5  6  7  8  9  

Terminal Aerodrome Forecast

625
FTUS44 KOHX 292340
TAFBNA
TAF
KBNA 292340Z 3000/3024 28006KT P6SM SCT050 BKN250
     FM300100 35005KT P6SM VCTS SCT050CB BKN120 BKN250
     FM300300 33004KT P6SM BKN120 BKN250
     FM300700 35004KT P6SM SKC
     FM300900 35004KT 5SM BR SKC
     FM301400 01007KT P6SM SKC=

Latest METAR

144
SAUS70 KWBC 301000 RRC
MTRBNA
METAR KBNA 300953Z 35007KT 10SM BKN018 BKN028 BKN033 26/23 A3003 RMK AO2
SLP161 T02560233


USA.gov is the U.S. government's official web portal to all federal, state and local government web resources and services.